createdAt,value
2023-05-13T00:00:34.735Z,14.42
2023-05-13T00:03:02.462Z,14.52
2023-05-13T00:05:30.268Z,14.77
2023-05-13T00:08:01.880Z,14.69
2023-05-13T00:10:31.173Z,14.14
2023-05-13T00:12:58.887Z,14.43
2023-05-13T00:15:26.814Z,14.48
2023-05-13T00:17:54.579Z,14.67
2023-05-13T00:20:22.789Z,14.50
2023-05-13T00:22:50.732Z,14.63
2023-05-13T00:25:18.524Z,14.31
2023-05-13T00:27:47.634Z,14.14
2023-05-13T00:30:15.612Z,14.43
2023-05-13T00:32:43.394Z,14.75
2023-05-13T00:35:11.200Z,14.50
2023-05-13T00:37:38.945Z,14.25
2023-05-13T00:40:15.239Z,14.44
2023-05-13T00:42:42.937Z,14.16
2023-05-13T00:45:14.344Z,14.19
2023-05-13T00:47:42.905Z,13.83
2023-05-13T00:50:11.953Z,13.91
2023-05-13T00:52:40.697Z,13.73
2023-05-13T00:55:09.973Z,13.46
2023-05-13T00:57:38.384Z,13.36
2023-05-13T01:00:07.972Z,13.48
2023-05-13T01:02:44.262Z,13.39
2023-05-13T01:05:20.751Z,13.54
2023-05-13T01:07:57.365Z,13.54
2023-05-13T01:10:32.024Z,13.76
2023-05-13T01:13:03.995Z,13.43
2023-05-13T01:15:33.305Z,13.21
2023-05-13T01:18:08.062Z,13.40
2023-05-13T01:20:36.371Z,12.87
2023-05-13T01:23:06.545Z,12.71
2023-05-13T01:25:34.274Z,12.55
2023-05-13T01:28:02.286Z,12.49
2023-05-13T01:30:30.483Z,12.60
2023-05-13T01:32:59.265Z,12.85
2023-05-13T01:35:29.603Z,12.93
2023-05-13T01:37:58.670Z,13.08
2023-05-13T01:40:32.662Z,12.80
2023-05-13T01:43:01.013Z,12.59
2023-05-13T01:45:29.754Z,12.82
2023-05-13T01:47:57.595Z,12.97
2023-05-13T01:50:26.286Z,12.82
2023-05-13T01:52:54.025Z,12.97
2023-05-13T01:55:21.975Z,12.75
2023-05-13T01:57:51.158Z,12.61
2023-05-13T02:00:19.777Z,13.08
2023-05-13T02:02:48.143Z,12.60
2023-05-13T02:05:16.816Z,12.56
2023-05-13T02:07:44.614Z,12.43
2023-05-13T02:10:12.820Z,12.29
2023-05-13T02:12:40.655Z,12.46
2023-05-13T02:15:11.077Z,12.41
2023-05-13T02:17:38.822Z,12.44
2023-05-13T02:20:07.935Z,12.14
2023-05-13T02:22:36.120Z,12.21
2023-05-13T02:25:04.952Z,12.18
2023-05-13T02:27:32.681Z,12.03
2023-05-13T02:30:00.447Z,11.82
2023-05-13T02:32:29.815Z,11.84
2023-05-13T02:34:57.607Z,11.88
2023-05-13T02:37:25.424Z,11.88
2023-05-13T02:39:53.355Z,11.97
2023-05-13T02:42:21.090Z,12.37
2023-05-13T02:44:49.201Z,12.04
2023-05-13T02:47:16.968Z,11.85
2023-05-13T02:49:46.075Z,11.67
2023-05-13T02:52:14.218Z,11.70
2023-05-13T02:54:41.973Z,11.68
2023-05-13T02:57:10.014Z,11.44
2023-05-13T02:59:37.733Z,11.81
2023-05-13T03:02:05.618Z,11.71
2023-05-13T03:04:33.386Z,11.74
2023-05-13T03:07:02.479Z,11.81
2023-05-13T03:09:31.612Z,11.75
2023-05-13T03:11:59.426Z,11.98
2023-05-13T03:14:27.302Z,12.17
2023-05-13T03:16:55.052Z,12.19
2023-05-13T03:19:22.771Z,12.14
2023-05-13T03:21:50.826Z,11.61
2023-05-13T03:24:19.963Z,11.60
2023-05-13T03:26:47.676Z,11.45
2023-05-13T03:29:15.448Z,11.46
2023-05-13T03:31:43.351Z,11.47
2023-05-13T03:34:11.237Z,11.29
2023-05-13T03:36:38.971Z,11.22
2023-05-13T03:39:06.736Z,11.50
2023-05-13T03:41:36.033Z,11.75
2023-05-13T03:44:03.909Z,11.65
2023-05-13T03:46:32.271Z,11.75
2023-05-13T03:49:00.455Z,11.74
2023-05-13T03:51:28.185Z,11.73
2023-05-13T03:53:55.983Z,11.85
2023-05-13T03:56:23.721Z,11.83
2023-05-13T03:58:52.941Z,12.10
2023-05-13T04:01:20.670Z,11.94
2023-05-13T04:03:49.857Z,12.27
2023-05-13T04:06:17.699Z,12.07
2023-05-13T04:08:46.731Z,12.17
2023-05-13T04:11:14.445Z,12.14
2023-05-13T04:13:43.780Z,11.88
2023-05-13T04:16:12.922Z,11.87
2023-05-13T04:18:40.804Z,11.91
2023-05-13T04:21:08.843Z,11.92
2023-05-13T04:23:36.620Z,12.11
2023-05-13T04:26:04.456Z,12.02
2023-05-13T04:28:32.587Z,12.24
2023-05-13T04:31:00.434Z,12.60
2023-05-13T04:33:29.588Z,12.50
2023-05-13T04:35:57.311Z,12.58
2023-05-13T04:38:25.063Z,12.53
2023-05-13T04:40:53.299Z,12.65
2023-05-13T04:43:22.120Z,12.59
2023-05-13T04:45:50.313Z,12.54
2023-05-13T04:48:18.094Z,12.87
2023-05-13T04:50:48.324Z,12.97
2023-05-13T04:53:16.621Z,13.25
2023-05-13T04:55:44.342Z,13.74
2023-05-13T04:58:12.072Z,13.97
2023-05-13T05:00:39.789Z,14.14
2023-05-13T05:03:07.651Z,14.41
2023-05-13T05:05:35.441Z,14.76
2023-05-13T05:08:04.635Z,14.83
2023-05-13T05:10:32.355Z,15.15
2023-05-13T05:13:00.137Z,15.63
2023-05-13T05:15:27.988Z,15.92
2023-05-13T05:17:55.873Z,16.33
2023-05-13T05:20:24.326Z,16.56
2023-05-13T05:22:52.513Z,16.53
2023-05-13T05:25:21.642Z,16.73
2023-05-13T05:27:49.356Z,17.02
2023-05-13T05:30:17.312Z,16.99
2023-05-13T05:32:45.138Z,16.73
2023-05-13T05:35:13.444Z,17.18
2023-05-13T05:37:41.252Z,17.09
2023-05-13T05:40:10.271Z,17.40
2023-05-13T05:42:39.338Z,17.15
2023-05-13T05:45:08.015Z,17.52
2023-05-13T05:47:35.774Z,18.02
2023-05-13T05:50:03.562Z,17.65
2023-05-13T05:52:31.314Z,17.96
2023-05-13T05:54:59.330Z,17.54
2023-05-13T05:57:27.059Z,18.28
2023-05-13T05:59:56.254Z,17.66
2023-05-13T06:02:24.041Z,17.74
2023-05-13T06:04:51.879Z,17.75
2023-05-13T06:07:19.690Z,17.29
2023-05-13T06:09:47.484Z,17.90
2023-05-13T06:12:15.250Z,18.02
2023-05-13T06:14:43.117Z,18.32
2023-05-13T06:17:14.724Z,18.23
2023-05-13T06:19:42.956Z,18.49
2023-05-13T06:22:11.181Z,18.53
2023-05-13T06:24:42.618Z,18.88
2023-05-13T06:27:11.345Z,19.21
2023-05-13T06:29:39.097Z,18.90
2023-05-13T06:32:07.498Z,19.16
2023-05-13T06:34:36.581Z,18.99
2023-05-13T06:37:04.389Z,18.91
2023-05-13T06:39:32.186Z,18.66
2023-05-13T06:41:59.885Z,18.69
2023-05-13T06:44:27.589Z,18.60
2023-05-13T06:46:55.342Z,18.67
2023-05-13T06:49:24.517Z,19.05
2023-05-13T06:51:53.640Z,19.85
2023-05-13T06:54:21.357Z,18.67
2023-05-13T06:56:49.086Z,18.77
2023-05-13T06:59:16.841Z,18.91
2023-05-13T07:01:44.577Z,19.07
2023-05-13T07:04:12.511Z,19.12
2023-05-13T07:06:40.465Z,19.17
2023-05-13T07:09:09.926Z,19.48
2023-05-13T07:11:37.901Z,19.36
2023-05-13T07:14:05.685Z,19.43
2023-05-13T07:16:33.451Z,19.83
2023-05-13T07:19:01.170Z,19.26
2023-05-13T07:21:28.907Z,19.62
2023-05-13T07:23:56.630Z,19.30
2023-05-13T07:26:25.713Z,19.89
2023-05-13T07:28:53.418Z,19.81
2023-05-13T07:31:21.218Z,20.05
2023-05-13T07:33:49.484Z,20.27
2023-05-13T07:36:17.212Z,20.08
2023-05-13T07:38:45.097Z,19.85
2023-05-13T07:41:12.874Z,19.92
2023-05-13T07:43:41.947Z,20.34
2023-05-13T07:46:09.775Z,20.63
2023-05-13T07:48:37.496Z,20.60
2023-05-13T07:51:06.062Z,20.95
2023-05-13T07:53:33.878Z,21.16
2023-05-13T07:56:01.601Z,21.87
2023-05-13T07:58:29.309Z,21.29
2023-05-13T08:00:58.506Z,21.43
2023-05-13T08:03:26.400Z,22.23
2023-05-13T08:05:54.135Z,21.82
2023-05-13T08:08:21.904Z,21.34
2023-05-13T08:10:52.006Z,21.64
2023-05-13T08:13:19.721Z,22.01
2023-05-13T08:15:47.508Z,21.94
2023-05-13T08:18:16.663Z,22.42
2023-05-13T08:20:44.423Z,22.41
2023-05-13T08:23:12.170Z,22.19
2023-05-13T08:25:39.961Z,22.64
2023-05-13T08:28:07.682Z,22.82
2023-05-13T08:30:35.441Z,22.54
2023-05-13T08:33:03.809Z,22.52
2023-05-13T08:35:33.123Z,22.87
2023-05-13T08:38:00.847Z,22.52
2023-05-13T08:40:28.665Z,22.02
2023-05-13T08:42:58.915Z,23.29
2023-05-13T08:45:30.854Z,23.09
2023-05-13T08:48:01.873Z,23.20
2023-05-13T08:50:30.554Z,23.21
2023-05-13T08:53:00.481Z,23.03
2023-05-13T08:55:28.504Z,23.07
2023-05-13T08:57:56.254Z,22.58
2023-05-13T09:00:24.229Z,22.20
2023-05-13T09:02:52.591Z,22.98
2023-05-13T09:05:21.983Z,23.11
2023-05-13T09:07:50.011Z,23.17
2023-05-13T09:10:19.244Z,23.52
2023-05-13T09:12:48.736Z,23.70
2023-05-13T09:15:19.214Z,24.20
2023-05-13T09:17:50.151Z,23.83
2023-05-13T09:20:19.496Z,24.48
2023-05-13T09:22:48.380Z,25.22
2023-05-13T09:25:17.913Z,24.62
2023-05-13T09:27:49.007Z,23.81
2023-05-13T09:30:16.877Z,24.69
2023-05-13T09:32:44.879Z,24.62
2023-05-13T09:35:16.765Z,23.42
2023-05-13T09:37:49.075Z,23.62
2023-05-13T09:40:18.440Z,23.67
2023-05-13T09:42:47.961Z,24.15
2023-05-13T09:45:17.468Z,23.44
2023-05-13T09:47:45.486Z,24.13
2023-05-13T09:50:13.395Z,23.92
2023-05-13T09:52:41.152Z,23.07
2023-05-13T09:55:10.587Z,24.36
2023-05-13T09:57:39.337Z,24.31
2023-05-13T10:00:28.946Z,24.37
2023-05-13T10:02:57.607Z,24.43
2023-05-13T10:05:25.981Z,23.79
2023-05-13T10:07:53.990Z,24.48
2023-05-13T10:10:22.856Z,24.76
2023-05-13T10:12:52.215Z,25.97
2023-05-13T10:15:21.548Z,25.61
2023-05-13T10:17:50.189Z,25.74
2023-05-13T10:20:18.117Z,26.49
2023-05-13T10:22:46.152Z,25.87
2023-05-13T10:25:13.870Z,26.09
2023-05-13T10:27:43.262Z,27.06
2023-05-13T10:30:12.819Z,26.38
2023-05-13T10:32:42.328Z,26.34
2023-05-13T10:35:13.499Z,27.89
2023-05-13T10:38:00.764Z,27.57
2023-05-13T10:40:56.785Z,27.19
2023-05-13T10:43:28.708Z,27.78
2023-05-13T10:45:59.445Z,27.76
2023-05-13T10:48:39.039Z,26.35
2023-05-13T10:51:08.259Z,26.91
2023-05-13T10:53:38.901Z,26.47
2023-05-13T10:56:08.339Z,27.94
2023-05-13T10:58:38.248Z,26.58
2023-05-13T11:01:17.706Z,27.74
2023-05-13T11:03:54.733Z,28.02
2023-05-13T11:06:23.824Z,27.80
2023-05-13T11:08:55.746Z,28.82
2023-05-13T11:11:26.381Z,28.91
2023-05-13T11:13:55.804Z,27.91
2023-05-13T11:16:24.286Z,28.44
2023-05-13T11:18:54.180Z,29.24
2023-05-13T11:21:31.235Z,28.70
2023-05-13T11:24:02.131Z,29.61
2023-05-13T11:26:45.201Z,28.54
2023-05-13T11:29:13.587Z,28.73
2023-05-13T11:31:46.334Z,27.74
2023-05-13T11:34:17.346Z,27.86
2023-05-13T11:36:47.467Z,28.05
2023-05-13T11:39:17.127Z,29.27
2023-05-13T11:41:48.640Z,27.98
2023-05-13T11:44:17.961Z,26.83
2023-05-13T11:46:53.762Z,27.12
2023-05-13T11:49:37.336Z,28.35
2023-05-13T11:52:06.979Z,27.79
2023-05-13T11:54:42.994Z,28.60
2023-05-13T11:57:24.453Z,27.56
2023-05-13T11:59:56.777Z,28.70
2023-05-13T12:02:26.237Z,28.29
2023-05-13T12:04:55.867Z,26.65
2023-05-13T12:07:24.784Z,26.31
2023-05-13T12:09:53.225Z,28.22
2023-05-13T12:12:21.677Z,28.87
2023-05-13T12:14:51.145Z,27.93
2023-05-13T12:17:19.535Z,29.01
2023-05-13T12:20:11.847Z,29.17
2023-05-13T12:22:52.446Z,27.91
2023-05-13T12:25:44.190Z,28.30
2023-05-13T12:28:16.898Z,28.79
2023-05-13T12:30:51.322Z,29.16
2023-05-13T12:33:20.989Z,29.02
2023-05-13T12:35:52.418Z,27.89
2023-05-13T12:38:21.114Z,28.37
2023-05-13T12:40:50.067Z,27.27
2023-05-13T12:43:19.538Z,28.22
2023-05-13T12:45:49.349Z,28.35
2023-05-13T12:48:17.080Z,28.15
2023-05-13T12:50:44.780Z,29.20
2023-05-13T12:53:14.177Z,28.33
2023-05-13T12:55:41.899Z,27.91
2023-05-13T12:58:11.960Z,28.19
2023-05-13T13:00:39.786Z,28.92
2023-05-13T13:03:08.009Z,28.44
2023-05-13T13:05:36.341Z,28.95
2023-05-13T13:08:05.341Z,28.30
2023-05-13T13:10:34.794Z,29.93
2023-05-13T13:13:02.591Z,30.35
2023-05-13T13:15:30.679Z,29.78
2023-05-13T13:17:58.446Z,29.66
2023-05-13T13:20:26.313Z,29.53
2023-05-13T13:22:54.250Z,30.15
2023-05-13T13:25:22.280Z,29.90
2023-05-13T13:27:51.794Z,29.40
2023-05-13T13:30:19.508Z,28.58
2023-05-13T13:32:47.242Z,29.71
2023-05-13T13:35:14.988Z,29.16
2023-05-13T13:37:42.684Z,29.17
2023-05-13T13:40:11.734Z,29.63
2023-05-13T13:42:44.567Z,30.76
2023-05-13T13:45:14.938Z,30.29
2023-05-13T13:47:43.086Z,30.68
2023-05-13T13:50:11.884Z,29.60
2023-05-13T13:52:39.689Z,29.68
2023-05-13T13:55:08.487Z,30.12
2023-05-13T13:57:36.202Z,30.71
2023-05-13T14:00:03.996Z,30.10
2023-05-13T14:02:33.276Z,29.91
2023-05-13T14:05:01.123Z,30.74
2023-05-13T14:07:29.259Z,31.62
2023-05-13T14:09:57.990Z,30.83
2023-05-13T14:12:27.418Z,30.05
2023-05-13T14:14:55.145Z,29.97
2023-05-13T14:17:22.991Z,28.72
2023-05-13T14:19:55.022Z,29.12
2023-05-13T14:22:23.625Z,28.34
2023-05-13T14:24:52.509Z,28.91
2023-05-13T14:27:21.772Z,28.55
2023-05-13T14:29:49.786Z,28.08
2023-05-13T14:32:17.864Z,27.82
2023-05-13T14:34:46.175Z,27.99
2023-05-13T14:37:15.594Z,28.38
2023-05-13T14:39:43.356Z,27.14
2023-05-13T14:42:11.582Z,26.83
2023-05-13T14:44:41.402Z,27.80
2023-05-13T14:47:09.355Z,28.59
2023-05-13T14:49:37.158Z,27.90
2023-05-13T14:52:05.455Z,28.11
2023-05-13T14:54:35.842Z,27.60
2023-05-13T14:57:04.174Z,28.35
2023-05-13T14:59:32.185Z,27.77
2023-05-13T15:01:59.967Z,27.06
2023-05-13T15:04:27.957Z,26.87
2023-05-13T15:06:56.347Z,26.73
2023-05-13T15:09:24.089Z,28.19
2023-05-13T15:11:53.168Z,27.41
2023-05-13T15:14:21.607Z,28.05
2023-05-13T15:16:49.409Z,28.86
2023-05-13T15:19:17.207Z,29.53
2023-05-13T15:21:44.966Z,28.99
2023-05-13T15:24:12.737Z,29.47
2023-05-13T15:26:40.440Z,30.49
2023-05-13T15:29:09.544Z,29.62
2023-05-13T15:31:37.277Z,30.77
2023-05-13T15:34:04.997Z,29.94
2023-05-13T15:36:34.846Z,28.85
2023-05-13T15:39:02.810Z,28.47
2023-05-13T15:41:30.578Z,28.95
2023-05-13T15:43:58.362Z,28.60
2023-05-13T15:46:27.875Z,29.72
2023-05-13T15:48:55.701Z,29.13
2023-05-13T15:51:23.418Z,29.03
2023-05-13T15:53:52.573Z,29.04
2023-05-13T15:56:21.596Z,28.40
2023-05-13T15:58:49.398Z,28.75
2023-05-13T16:01:17.163Z,28.82
2023-05-13T16:03:46.308Z,29.50
2023-05-13T16:06:14.167Z,29.18
2023-05-13T16:08:41.867Z,28.43
2023-05-13T16:11:11.802Z,29.01
2023-05-13T16:13:39.569Z,28.33
2023-05-13T16:16:07.850Z,28.41
2023-05-13T16:18:35.611Z,27.54
2023-05-13T16:21:05.323Z,28.42
2023-05-13T16:23:33.070Z,28.49
2023-05-13T16:26:00.783Z,28.41
2023-05-13T16:28:28.563Z,27.80
2023-05-13T16:30:58.553Z,27.84
2023-05-13T16:33:26.631Z,27.84
2023-05-13T16:35:54.419Z,28.02
2023-05-13T16:38:23.507Z,28.19
2023-05-13T16:40:51.211Z,27.88
2023-05-13T16:43:18.921Z,28.10
2023-05-13T16:45:46.740Z,28.15
2023-05-13T16:48:14.679Z,27.07
2023-05-13T16:50:42.438Z,26.87
2023-05-13T16:53:10.361Z,26.30
2023-05-13T16:55:39.487Z,26.33
2023-05-13T16:58:07.243Z,26.46
2023-05-13T17:00:34.978Z,26.04
2023-05-13T17:03:03.142Z,26.23
2023-05-13T17:05:31.961Z,26.46
2023-05-13T17:07:59.737Z,25.82
2023-05-13T17:10:27.591Z,26.27
2023-05-13T17:12:58.339Z,25.95
2023-05-13T17:15:26.327Z,25.93
2023-05-13T17:17:54.036Z,26.06
2023-05-13T17:20:22.183Z,26.41
2023-05-13T17:22:49.978Z,26.67
2023-05-13T17:25:17.873Z,25.87
2023-05-13T17:27:45.610Z,25.33
2023-05-13T17:30:16.086Z,25.20
2023-05-13T17:32:43.812Z,24.90
2023-05-13T17:35:11.694Z,25.18
2023-05-13T17:37:39.462Z,25.44
2023-05-13T17:40:08.779Z,25.53
2023-05-13T17:42:36.910Z,24.80
2023-05-13T17:45:05.295Z,24.61
2023-05-13T17:47:34.933Z,24.38
2023-05-13T17:50:02.803Z,24.35
2023-05-13T17:52:30.550Z,24.67
2023-05-13T17:54:58.290Z,24.66
2023-05-13T17:57:25.974Z,24.93
2023-05-13T17:59:53.707Z,24.16
2023-05-13T18:02:21.474Z,24.20
2023-05-13T18:04:50.606Z,24.37
2023-05-13T18:07:19.449Z,24.20
2023-05-13T18:09:49.321Z,24.18
2023-05-13T18:12:17.972Z,23.85
2023-05-13T18:14:45.706Z,23.11
2023-05-13T18:17:13.403Z,22.98
2023-05-13T18:19:41.153Z,22.58
2023-05-13T18:22:10.830Z,22.86
2023-05-13T18:24:39.450Z,22.57
2023-05-13T18:27:08.188Z,22.27
2023-05-13T18:29:36.200Z,22.62
2023-05-13T18:32:04.895Z,22.01
2023-05-13T18:34:33.907Z,21.81
2023-05-13T18:37:01.759Z,21.46
2023-05-13T18:39:31.362Z,21.78
2023-05-13T18:41:59.044Z,21.68
2023-05-13T18:44:26.789Z,21.86
2023-05-13T18:46:54.571Z,21.07
2023-05-13T18:49:23.013Z,21.20
2023-05-13T18:51:50.966Z,21.14
2023-05-13T18:54:18.688Z,21.03
2023-05-13T18:56:47.807Z,20.99
2023-05-13T18:59:15.525Z,20.85
2023-05-13T19:01:43.529Z,20.66
2023-05-13T19:04:12.347Z,21.03
2023-05-13T19:06:40.255Z,20.72
2023-05-13T19:09:08.169Z,20.65
2023-05-13T19:11:36.056Z,20.75
2023-05-13T19:14:05.124Z,20.75
2023-05-13T19:16:33.056Z,20.86
2023-05-13T19:19:00.816Z,20.59
2023-05-13T19:21:28.534Z,20.40
2023-05-13T19:23:56.253Z,20.33
2023-05-13T19:26:24.003Z,20.30
2023-05-13T19:28:52.199Z,20.46
2023-05-13T19:31:22.021Z,20.52
2023-05-13T19:33:49.812Z,20.03
2023-05-13T19:36:17.557Z,19.91
2023-05-13T19:38:45.317Z,19.77
2023-05-13T19:41:13.042Z,19.86
2023-05-13T19:43:41.780Z,19.80
2023-05-13T19:46:09.576Z,19.49
2023-05-13T19:48:38.781Z,19.80
2023-05-13T19:51:06.548Z,19.25
2023-05-13T19:53:34.278Z,19.29
2023-05-13T19:56:02.080Z,19.22
2023-05-13T19:58:29.794Z,19.06
2023-05-13T20:00:58.134Z,18.93
2023-05-13T20:03:25.934Z,19.22
2023-05-13T20:05:55.132Z,18.95
2023-05-13T20:08:22.971Z,18.61
2023-05-13T20:10:50.766Z,18.60
2023-05-13T20:13:18.551Z,18.69
2023-05-13T20:15:46.527Z,18.38
2023-05-13T20:18:14.272Z,18.20
2023-05-13T20:20:42.334Z,18.86
2023-05-13T20:23:13.751Z,18.71
2023-05-13T20:25:42.194Z,18.08
2023-05-13T20:28:09.970Z,18.70
2023-05-13T20:30:37.717Z,18.66
2023-05-13T20:33:05.424Z,18.54
2023-05-13T20:35:33.177Z,18.27
2023-05-13T20:38:01.805Z,18.44
2023-05-13T20:40:31.281Z,18.35
2023-05-13T20:43:01.242Z,18.41
2023-05-13T20:45:29.112Z,18.50
2023-05-13T20:47:59.227Z,18.05
2023-05-13T20:50:28.286Z,18.29
2023-05-13T20:52:56.344Z,18.05
2023-05-13T20:55:24.728Z,18.44
2023-05-13T20:57:53.910Z,18.14
2023-05-13T21:00:22.040Z,17.96
2023-05-13T21:02:51.645Z,17.63
2023-05-13T21:05:19.774Z,17.84
2023-05-13T21:07:47.572Z,17.49
2023-05-13T21:10:16.090Z,17.62
2023-05-13T21:12:47.627Z,17.79
2023-05-13T21:15:16.982Z,17.99
2023-05-13T21:17:44.764Z,17.89
2023-05-13T21:20:13.585Z,17.78
2023-05-13T21:22:41.314Z,17.79
2023-05-13T21:25:09.931Z,17.22
2023-05-13T21:27:37.687Z,17.26
2023-05-13T21:30:06.283Z,17.14
2023-05-13T21:32:35.444Z,16.85
2023-05-13T21:35:03.229Z,17.34
2023-05-13T21:37:30.992Z,17.46
2023-05-13T21:39:58.955Z,17.34
2023-05-13T21:42:27.065Z,17.28
2023-05-13T21:44:54.832Z,17.21
2023-05-13T21:47:22.697Z,17.24
2023-05-13T21:49:52.210Z,17.16
2023-05-13T21:52:19.958Z,16.94
2023-05-13T21:54:47.717Z,16.84
2023-05-13T21:57:15.446Z,17.31
2023-05-13T21:59:43.361Z,17.39
2023-05-13T22:02:11.250Z,16.92
2023-05-13T22:04:39.013Z,17.34
2023-05-13T22:07:08.239Z,17.28
2023-05-13T22:09:36.471Z,17.23
2023-05-13T22:12:04.756Z,17.06
2023-05-13T22:14:32.491Z,16.88
2023-05-13T22:17:09.228Z,16.85
2023-05-13T22:19:37.898Z,16.98
2023-05-13T22:22:06.134Z,16.73
2023-05-13T22:24:35.343Z,16.44
2023-05-13T22:27:03.146Z,16.28
2023-05-13T22:29:31.246Z,16.28
2023-05-13T22:31:59.071Z,16.71
2023-05-13T22:34:27.404Z,16.52
2023-05-13T22:36:55.508Z,16.34
2023-05-13T22:39:23.225Z,16.44
2023-05-13T22:41:54.597Z,16.63
2023-05-13T22:44:22.768Z,16.94
2023-05-13T22:46:52.138Z,16.55
2023-05-13T22:49:19.905Z,15.90
2023-05-13T22:51:48.262Z,16.23
2023-05-13T22:54:16.222Z,15.91
2023-05-13T22:56:44.102Z,15.40
2023-05-13T22:59:13.191Z,15.79
2023-05-13T23:01:41.058Z,15.60
2023-05-13T23:04:09.007Z,15.41
2023-05-13T23:06:37.478Z,15.93
2023-05-13T23:09:07.516Z,15.74
2023-05-13T23:11:37.239Z,15.57
2023-05-13T23:14:05.385Z,15.69
2023-05-13T23:16:34.591Z,15.79
2023-05-13T23:19:02.465Z,15.42
2023-05-13T23:21:30.483Z,15.23
2023-05-13T23:23:58.442Z,15.58
2023-05-13T23:26:26.272Z,15.37
2023-05-13T23:28:54.017Z,15.58
2023-05-13T23:31:21.794Z,15.72
2023-05-13T23:33:50.945Z,15.50
2023-05-13T23:36:18.668Z,15.66
2023-05-13T23:38:46.386Z,15.14
2023-05-13T23:41:14.102Z,15.19
2023-05-13T23:43:41.810Z,15.71
2023-05-13T23:46:09.620Z,15.76
2023-05-13T23:48:37.442Z,15.49
2023-05-13T23:51:07.143Z,15.59
2023-05-13T23:53:35.261Z,15.48
2023-05-13T23:56:03.024Z,15.38
2023-05-13T23:58:30.756Z,15.26
